Wind From: 10-12-2017 19:04 Until: 11-12-2017 16:00 warning for: Wind Level: Orange info button

Power and phone distribution networks may be disrupted for relatively long periods., Roofs and chimneys can be damaged. , Tree branches may break. , Vehicles can be deported. , Traffic may be disrupted, particularly on secondary roads in forest areas. Limit your trips. , Limit your speed in highway driving, especially if you drive a vehicle or hitch sensitive to wind. , Do not go for walks in forests or along the coast., In town, be vigilant against possible falling objects., Do not work on roofs and do not touch any electrical line fallen on the ground., Store or secure sensitive objects to wind or likely to be damaged., Always install power generators outside buildings. 


Meteo18 Weather Cam more information Meteo18 Weather Cam


Thunder radar more information blitzortung!


Rain radar more information rain snow radar


Visit our other weather sites:

Template documentation
and downloads

And another site



Weather Underground History page Text

Daily Summary for September 14, 2017 Units:  Both    English   Metric
« Previous Day
Next Day »
Daily Weekly Monthly Yearly Custom
  High: Low: Average:
Temperature: 64.4 °F /  18.0 °C 50 °F /  10.0 °C 57 °F /  13.9 °C
Dew Point: 59.2 °F /  15.1 °C 44.6 °F /  7.0 °C 49.1 °F /  9.5 °C
Humidity: 95 % 54 % 76 %
Wind Speed: 24 mph /  38.6 km/h - 8.2 mph /  13.2 km/h
Wind Gust: 33 mph /  53.1 km/h - -
Wind:- - WSW
Pressure: 30.1 in /  1019.2 hPa 29.8 in /  1008.4 hPa -
Precipitation: 0.47 in /  11.9 mm    
Historical Graphs
 
 
Tabular Data for September 14, 2017
Time Temperature Dew Point Pressure Wind Wind Speed Wind Gust Humidity Rainfall Rate (Hourly)
00:02 64 °F /  17.8 °C 59.2 °F /  15.1 °C 29.9 in /  1011.4 hPa SW 23 mph /  37.0 km/h 32 mph /  51.5 km/h 84 % 0 in /  0.0 mm
00:07 64 °F /  17.8 °C 59.2 °F /  15.1 °C 29.9 in /  1011.4 hPa SW 17 mph /  27.4 km/h 32 mph /  51.5 km/h 84 % 0 in /  0.0 mm
00:12 63.9 °F /  17.7 °C 59 °F /  15.0 °C 29.9 in /  1011.4 hPa SW 13 mph /  20.9 km/h 29 mph /  46.7 km/h 84 % 0 in /  0.0 mm
00:17 63.9 °F /  17.7 °C 59 °F /  15.0 °C 29.9 in /  1011.4 hPa SSW 20 mph /  32.2 km/h 29 mph /  46.7 km/h 84 % 0 in /  0.0 mm
00:22 63.9 °F /  17.7 °C 59 °F /  15.0 °C 29.9 in /  1011.4 hPa West 15 mph /  24.1 km/h 29 mph /  46.7 km/h 84 % 0 in /  0.0 mm
00:32 63.9 °F /  17.7 °C 58.6 °F /  14.8 °C 29.9 in /  1011.1 hPa SSW 9 mph /  14.5 km/h 28 mph /  45.1 km/h 83 % 0 in /  0.0 mm
00:42 63.5 °F /  17.5 °C 58.3 °F /  14.6 °C 29.9 in /  1011.1 hPa WSW 16 mph /  25.7 km/h 33 mph /  53.1 km/h 83 % 0 in /  0.0 mm
00:52 63.5 °F /  17.5 °C 57.9 °F /  14.4 °C 29.8 in /  1010.7 hPa SW 8 mph /  12.9 km/h 24 mph /  38.6 km/h 82 % 0 in /  0.0 mm
00:57 63.5 °F /  17.5 °C 57.9 °F /  14.4 °C 29.8 in /  1010.7 hPa SW 16 mph /  25.7 km/h 26 mph /  41.8 km/h 82 % 0 in /  0.0 mm
01:02 63.5 °F /  17.5 °C 58.3 °F /  14.6 °C 29.8 in /  1010.7 hPa SW 23 mph /  37.0 km/h 26 mph /  41.8 km/h 83 % 0 in /  0.0 mm
01:07 63.5 °F /  17.5 °C 58.3 °F /  14.6 °C 29.8 in /  1010.4 hPa West 20 mph /  32.2 km/h 25 mph /  40.2 km/h 83 % 0 in /  0.0 mm
01:12 63.3 °F /  17.4 °C 58.1 °F /  14.5 °C 29.8 in /  1010.4 hPa South 7 mph /  11.3 km/h 25 mph /  40.2 km/h 83 % 0 in /  0.0 mm
01:17 63.3 °F /  17.4 °C 58.1 °F /  14.5 °C 29.8 in /  1010.4 hPa SW 17 mph /  27.4 km/h 23 mph /  37.0 km/h 83 % 0 in /  0.0 mm
01:27 63.3 °F /  17.4 °C 58.1 °F /  14.5 °C 29.8 in /  1010.0 hPa SW 20 mph /  32.2 km/h 29 mph /  46.7 km/h 83 % 0 in /  0.0 mm
01:32 63.3 °F /  17.4 °C 58.1 °F /  14.5 °C 29.8 in /  1010.0 hPa SSE 13 mph /  20.9 km/h 29 mph /  46.7 km/h 83 % 0 in /  0.0 mm
01:37 63.3 °F /  17.4 °C 58.1 °F /  14.5 °C 29.8 in /  1009.7 hPa SW 18 mph /  29.0 km/h 29 mph /  46.7 km/h 83 % 0 in /  0.0 mm
01:42 63.3 °F /  17.4 °C 58.1 °F /  14.5 °C 29.8 in /  1009.7 hPa SW 11 mph /  17.7 km/h 29 mph /  46.7 km/h 83 % 0 in /  0.0 mm
01:47 63.5 °F /  17.5 °C 57.9 °F /  14.4 °C 29.8 in /  1009.7 hPa SW 15 mph /  24.1 km/h 26 mph /  41.8 km/h 82 % 0 in /  0.0 mm
01:52 63.7 °F /  17.6 °C 58.1 °F /  14.5 °C 29.8 in /  1009.7 hPa SW 21 mph /  33.8 km/h 25 mph /  40.2 km/h 82 % 0 in /  0.0 mm
01:57 63.7 °F /  17.6 °C 58.1 °F /  14.5 °C 29.8 in /  1009.7 hPa SW 23 mph /  37.0 km/h 25 mph /  40.2 km/h 82 % 0 in /  0.0 mm
02:07 63.7 °F /  17.6 °C 58.1 °F /  14.5 °C 29.8 in /  1009.7 hPa WSW 16 mph /  25.7 km/h 25 mph /  40.2 km/h 82 % 0 in /  0.0 mm
02:12 63.9 °F /  17.7 °C 58.3 °F /  14.6 °C 29.8 in /  1009.4 hPa WSW 20 mph /  32.2 km/h 28 mph /  45.1 km/h 82 % 0 in /  0.0 mm
02:17 63.9 °F /  17.7 °C 58.3 °F /  14.6 °C 29.8 in /  1009.4 hPa WSW 24 mph /  38.6 km/h 28 mph /  45.1 km/h 82 % 0 in /  0.0 mm
02:22 64 °F /  17.8 °C 58.1 °F /  14.5 °C 29.8 in /  1009.4 hPa WSW 14 mph /  22.5 km/h 28 mph /  45.1 km/h 81 % 0 in /  0.0 mm
02:32 64.2 °F /  17.9 °C 58.6 °F /  14.8 °C 29.8 in /  1009.4 hPa West 14 mph /  22.5 km/h 29 mph /  46.7 km/h 82 % 0 in /  0.0 mm
02:37 64.2 °F /  17.9 °C 58.6 °F /  14.8 °C 29.8 in /  1009.0 hPa SW 15 mph /  24.1 km/h 28 mph /  45.1 km/h 82 % 0 in /  0.0 mm
02:42 64.2 °F /  17.9 °C 58.6 °F /  14.8 °C 29.8 in /  1009.0 hPa SW 13 mph /  20.9 km/h 29 mph /  46.7 km/h 82 % 0 in /  0.0 mm
02:47 64.2 °F /  17.9 °C 58.6 °F /  14.8 °C 29.8 in /  1009.0 hPa SSW 13 mph /  20.9 km/h 29 mph /  46.7 km/h 82 % 0 in /  0.0 mm
02:52 64.4 °F /  18.0 °C 58.8 °F /  14.9 °C 29.8 in /  1008.7 hPa SW 18 mph /  29.0 km/h 28 mph /  45.1 km/h 82 % 0 in /  0.0 mm
03:02 64.4 °F /  18.0 °C 58.8 °F /  14.9 °C 29.8 in /  1008.7 hPa SW 12 mph /  19.3 km/h 28 mph /  45.1 km/h 82 % 0 in /  0.0 mm
03:07 64.4 °F /  18.0 °C 58.8 °F /  14.9 °C 29.8 in /  1008.7 hPa SSW 17 mph /  27.4 km/h 28 mph /  45.1 km/h 82 % 0 in /  0.0 mm
03:12 64.2 °F /  17.9 °C 58.6 °F /  14.8 °C 29.8 in /  1008.7 hPa SW 23 mph /  37.0 km/h 28 mph /  45.1 km/h 82 % 0 in /  0.0 mm
03:17 64.4 °F /  18.0 °C 58.8 °F /  14.9 °C 29.8 in /  1008.7 hPa WSW 17 mph /  27.4 km/h 27 mph /  43.4 km/h 82 % 0 in /  0.0 mm
03:22 64.4 °F /  18.0 °C 58.8 °F /  14.9 °C 29.8 in /  1008.7 hPa SW 16 mph /  25.7 km/h 27 mph /  43.4 km/h 82 % 0 in /  0.0 mm
03:27 64.4 °F /  18.0 °C 58.5 °F /  14.7 °C 29.8 in /  1008.4 hPa SW 12 mph /  19.3 km/h 32 mph /  51.5 km/h 81 % 0 in /  0.0 mm
03:32 64.2 °F /  17.9 °C 58.3 °F /  14.6 °C 29.8 in /  1008.7 hPa WNW 13 mph /  20.9 km/h 32 mph /  51.5 km/h 81 % 0 in /  0.0 mm
03:37 64 °F /  17.8 °C 58.8 °F /  14.9 °C 29.8 in /  1009.7 hPa NW 19 mph /  30.6 km/h 27 mph /  43.4 km/h 83 % 0 in /  0.0 mm
03:42 59.4 °F /  15.2 °C 52.9 °F /  11.6 °C 29.8 in /  1010.0 hPa WNW 17 mph /  27.4 km/h 26 mph /  41.8 km/h 79 % 0.02 in /  0.5 mm
03:47 55.9 °F /  13.3 °C 52.2 °F /  11.2 °C 29.8 in /  1010.0 hPa NNW 9 mph /  14.5 km/h 26 mph /  41.8 km/h 87 % 0.08 in /  2.0 mm
03:52 54.7 °F /  12.6 °C 51.8 °F /  11.0 °C 29.8 in /  1010.0 hPa NNW 9 mph /  14.5 km/h 25 mph /  40.2 km/h 90 % 0.09 in /  2.3 mm
03:57 54.1 °F /  12.3 °C 51.6 °F /  10.9 °C 29.8 in /  1009.7 hPa ENE 8 mph /  12.9 km/h 21 mph /  33.8 km/h 91 % 0.1 in /  2.5 mm
04:02 53.8 °F /  12.1 °C 51.4 °F /  10.8 °C 29.8 in /  1010.0 hPa WNW 8 mph /  12.9 km/h 21 mph /  33.8 km/h 92 % 0.1 in /  2.5 mm
04:07 53.4 °F /  11.9 °C 51.1 °F /  10.6 °C 29.8 in /  1010.0 hPa WNW 12 mph /  19.3 km/h 16 mph /  25.7 km/h 92 % 0.12 in /  3.0 mm
04:12 53.4 °F /  11.9 °C 51.1 °F /  10.6 °C 29.8 in /  1010.0 hPa NW 4 mph /  6.4 km/h 15 mph /  24.1 km/h 92 % 0.13 in /  3.3 mm
04:17 53.2 °F /  11.8 °C 51.3 °F /  10.7 °C 29.8 in /  1010.0 hPa WNW 4 mph /  6.4 km/h 14 mph /  22.5 km/h 93 % 0.13 in /  3.3 mm
04:22 53.1 °F /  11.7 °C 51.1 °F /  10.6 °C 29.8 in /  1010.4 hPa WNW 5 mph /  8.0 km/h 15 mph /  24.1 km/h 93 % 0.13 in /  3.3 mm
04:27 53.1 °F /  11.7 °C 51.1 °F /  10.6 °C 29.8 in /  1010.4 hPa WNW 7 mph /  11.3 km/h 18 mph /  29.0 km/h 93 % 0.14 in /  3.6 mm
04:32 52.9 °F /  11.6 °C 50.9 °F /  10.5 °C 29.8 in /  1010.4 hPa WSW 5 mph /  8.0 km/h 18 mph /  29.0 km/h 93 % 0.14 in /  3.6 mm
04:37 52.9 °F /  11.6 °C 50.9 °F /  10.5 °C 29.8 in /  1010.4 hPa West 2 mph /  3.2 km/h 18 mph /  29.0 km/h 93 % 0.14 in /  3.6 mm
04:42 52.5 °F /  11.4 °C 50.5 °F /  10.3 °C 29.8 in /  1010.4 hPa West 2 mph /  3.2 km/h 10 mph /  16.1 km/h 93 % 0.11 in /  2.8 mm
04:47 52.3 °F /  11.3 °C 50.4 °F /  10.2 °C 29.8 in /  1010.4 hPa NNW 3 mph /  4.8 km/h 10 mph /  16.1 km/h 93 % 0.08 in /  2.0 mm
04:52 52.3 °F /  11.3 °C 50.4 °F /  10.2 °C 29.8 in /  1010.7 hPa NW 4 mph /  6.4 km/h 10 mph /  16.1 km/h 93 % 0.08 in /  2.0 mm
05:02 52.2 °F /  11.2 °C 50.2 °F /  10.1 °C 29.9 in /  1011.1 hPa West 6 mph /  9.7 km/h 12 mph /  19.3 km/h 93 % 0.09 in /  2.3 mm
05:07 52.2 °F /  11.2 °C 50.2 °F /  10.1 °C 29.9 in /  1011.1 hPa SSW 3 mph /  4.8 km/h 12 mph /  19.3 km/h 93 % 0.09 in /  2.3 mm
05:12 52.2 °F /  11.2 °C 50.2 °F /  10.1 °C 29.9 in /  1011.1 hPa WSW 1 mph /  1.6 km/h 12 mph /  19.3 km/h 93 % 0.09 in /  2.3 mm
05:22 52 °F /  11.1 °C 50 °F /  10.0 °C 29.9 in /  1011.1 hPa WSW 1 mph /  1.6 km/h 13 mph /  20.9 km/h 93 % 0.09 in /  2.3 mm
05:32 52 °F /  11.1 °C 50 °F /  10.0 °C 29.9 in /  1011.4 hPa WSW 4 mph /  6.4 km/h 8 mph /  12.9 km/h 93 % 0.09 in /  2.3 mm
05:37 52.2 °F /  11.2 °C 49.8 °F /  9.9 °C 29.9 in /  1011.1 hPa West 7 mph /  11.3 km/h 8 mph /  12.9 km/h 92 % 0.09 in /  2.3 mm
05:42 52.2 °F /  11.2 °C 49.8 °F /  9.9 °C 29.9 in /  1011.7 hPa SSW 5 mph /  8.0 km/h 12 mph /  19.3 km/h 92 % 0.08 in /  2.0 mm
05:47 52.2 °F /  11.2 °C 49.8 °F /  9.9 °C 29.9 in /  1011.4 hPa NW 4 mph /  6.4 km/h 12 mph /  19.3 km/h 92 % 0.07 in /  1.8 mm
05:52 52.2 °F /  11.2 °C 49.8 °F /  9.9 °C 29.9 in /  1011.4 hPa West 3 mph /  4.8 km/h 12 mph /  19.3 km/h 92 % 0.06 in /  1.5 mm
05:57 52 °F /  11.1 °C 49.6 °F /  9.8 °C 29.9 in /  1011.4 hPa SW 5 mph /  8.0 km/h 7 mph /  11.3 km/h 92 % 0.06 in /  1.5 mm
06:02 52 °F /  11.1 °C 49.6 °F /  9.8 °C 29.9 in /  1011.7 hPa SW 3 mph /  4.8 km/h 7 mph /  11.3 km/h 92 % 0.05 in /  1.3 mm
06:07 51.8 °F /  11.0 °C 49.6 °F /  9.8 °C 29.9 in /  1011.1 hPa WSW 2 mph /  3.2 km/h 6 mph /  9.7 km/h 92 % 0.03 in /  0.8 mm
06:12 51.6 °F /  10.9 °C 49.6 °F /  9.8 °C 29.9 in /  1011.1 hPa SSW 1 mph /  1.6 km/h 6 mph /  9.7 km/h 93 % 0.03 in /  0.8 mm
06:17 51.6 °F /  10.9 °C 49.6 °F /  9.8 °C 29.9 in /  1011.1 hPa Calm   6 mph /  9.7 km/h 93 % 0.02 in /  0.5 mm
06:22 51.8 °F /  11.0 °C 50.2 °F /  10.1 °C 29.9 in /  1011.7 hPa SW 4 mph /  6.4 km/h 6 mph /  9.7 km/h 94 % 0.02 in /  0.5 mm
06:32 52 °F /  11.1 °C 50.4 °F /  10.2 °C 29.9 in /  1011.1 hPa SSW 1 mph /  1.6 km/h 7 mph /  11.3 km/h 94 % 0.03 in /  0.8 mm
06:37 52 °F /  11.1 °C 50.4 °F /  10.2 °C 29.9 in /  1011.7 hPa WSW 4 mph /  6.4 km/h 8 mph /  12.9 km/h 94 % 0.06 in /  1.5 mm
06:42 52 °F /  11.1 °C 50.5 °F /  10.3 °C 29.9 in /  1011.4 hPa WNW 1 mph /  1.6 km/h 8 mph /  12.9 km/h 95 % 0.06 in /  1.5 mm
06:52 51.8 °F /  11.0 °C 50.4 °F /  10.2 °C 29.9 in /  1011.7 hPa SSE 1 mph /  1.6 km/h 8 mph /  12.9 km/h 95 % 0.08 in /  2.0 mm
06:57 51.8 °F /  11.0 °C 50.4 °F /  10.2 °C 29.9 in /  1011.4 hPa SW 2 mph /  3.2 km/h 9 mph /  14.5 km/h 95 % 0.11 in /  2.8 mm
07:02 51.8 °F /  11.0 °C 50.4 °F /  10.2 °C 29.9 in /  1011.7 hPa SSW 6 mph /  9.7 km/h 9 mph /  14.5 km/h 95 % 0.11 in /  2.8 mm
07:12 51.6 °F /  10.9 °C 50.2 °F /  10.1 °C 29.9 in /  1011.7 hPa South 4 mph /  6.4 km/h 10 mph /  16.1 km/h 95 % 0.12 in /  3.0 mm
07:17 51.6 °F /  10.9 °C 50.2 °F /  10.1 °C 29.9 in /  1011.7 hPa SSW 6 mph /  9.7 km/h 10 mph /  16.1 km/h 95 % 0.13 in /  3.3 mm
07:22 51.6 °F /  10.9 °C 50.2 °F /  10.1 °C 29.9 in /  1011.7 hPa South 2 mph /  3.2 km/h 11 mph /  17.7 km/h 95 % 0.14 in /  3.6 mm
07:27 51.8 °F /  11.0 °C 50.4 °F /  10.2 °C 29.9 in /  1011.7 hPa SW 6 mph /  9.7 km/h 11 mph /  17.7 km/h 95 % 0.14 in /  3.6 mm
07:32 51.8 °F /  11.0 °C 50.4 °F /  10.2 °C 29.9 in /  1011.7 hPa WSW 9 mph /  14.5 km/h 16 mph /  25.7 km/h 95 % 0.13 in /  3.3 mm
07:37 51.8 °F /  11.0 °C 50.4 °F /  10.2 °C 29.9 in /  1011.7 hPa SW 8 mph /  12.9 km/h 16 mph /  25.7 km/h 95 % 0.15 in /  3.8 mm
07:42 51.8 °F /  11.0 °C 50.4 °F /  10.2 °C 29.9 in /  1011.7 hPa West 8 mph /  12.9 km/h 16 mph /  25.7 km/h 95 % 0.14 in /  3.6 mm
07:47 51.8 °F /  11.0 °C 50.4 °F /  10.2 °C 29.9 in /  1012.1 hPa SW 10 mph /  16.1 km/h 14 mph /  22.5 km/h 95 % 0.14 in /  3.6 mm
07:52 51.8 °F /  11.0 °C 50.4 °F /  10.2 °C 29.9 in /  1011.4 hPa SW 4 mph /  6.4 km/h 17 mph /  27.4 km/h 95 % 0.13 in /  3.3 mm
08:02 52 °F /  11.1 °C 50.5 °F /  10.3 °C 29.9 in /  1011.7 hPa SW 5 mph /  8.0 km/h 17 mph /  27.4 km/h 95 % 0.12 in /  3.0 mm
08:12 52.2 °F /  11.2 °C 50.7 °F /  10.4 °C 29.9 in /  1012.1 hPa SW 13 mph /  20.9 km/h 14 mph /  22.5 km/h 95 % 0.11 in /  2.8 mm
08:22 52.3 °F /  11.3 °C 50.7 °F /  10.4 °C 29.9 in /  1012.1 hPa WSW 8 mph /  12.9 km/h 14 mph /  22.5 km/h 94 % 0.06 in /  1.5 mm
08:32 52.3 °F /  11.3 °C 50.7 °F /  10.4 °C 29.9 in /  1012.1 hPa SW 8 mph /  12.9 km/h 18 mph /  29.0 km/h 94 % 0.05 in /  1.3 mm
08:37 52.5 °F /  11.4 °C 50.9 °F /  10.5 °C 29.9 in /  1012.1 hPa WSW 10 mph /  16.1 km/h 20 mph /  32.2 km/h 94 % 0.03 in /  0.8 mm
08:42 52.5 °F /  11.4 °C 50.5 °F /  10.3 °C 29.9 in /  1012.8 hPa West 10 mph /  16.1 km/h 20 mph /  32.2 km/h 93 % 0.02 in /  0.5 mm
08:47 52.5 °F /  11.4 °C 50.5 °F /  10.3 °C 29.9 in /  1012.4 hPa West 10 mph /  16.1 km/h 17 mph /  27.4 km/h 93 % 0.01 in /  0.3 mm
08:52 52.9 °F /  11.6 °C 50.5 °F /  10.3 °C 29.9 in /  1012.8 hPa West 7 mph /  11.3 km/h 17 mph /  27.4 km/h 92 % 0.01 in /  0.3 mm
09:02 52.9 °F /  11.6 °C 50.5 °F /  10.3 °C 29.9 in /  1012.8 hPa West 6 mph /  9.7 km/h 17 mph /  27.4 km/h 92 % 0 in /  0.0 mm
09:12 53.1 °F /  11.7 °C 50.7 °F /  10.4 °C 29.9 in /  1013.1 hPa WSW 6 mph /  9.7 km/h 15 mph /  24.1 km/h 92 % 0 in /  0.0 mm
09:17 53.1 °F /  11.7 °C 50.7 °F /  10.4 °C 29.9 in /  1012.8 hPa WSW 13 mph /  20.9 km/h 16 mph /  25.7 km/h 92 % 0 in /  0.0 mm
09:22 53.1 °F /  11.7 °C 50.7 °F /  10.4 °C 29.9 in /  1013.1 hPa West 6 mph /  9.7 km/h 16 mph /  25.7 km/h 92 % 0 in /  0.0 mm
09:32 53.1 °F /  11.7 °C 50.7 °F /  10.4 °C 29.9 in /  1013.1 hPa West 8 mph /  12.9 km/h 15 mph /  24.1 km/h 92 % 0 in /  0.0 mm
09:37 53.1 °F /  11.7 °C 50.5 °F /  10.3 °C 29.9 in /  1013.4 hPa West 12 mph /  19.3 km/h 16 mph /  25.7 km/h 91 % 0.01 in /  0.3 mm
09:42 53.2 °F /  11.8 °C 50.4 °F /  10.2 °C 29.9 in /  1013.4 hPa WSW 10 mph /  16.1 km/h 16 mph /  25.7 km/h 90 % 0.01 in /  0.3 mm
09:47 53.2 °F /  11.8 °C 50.4 °F /  10.2 °C 29.9 in /  1013.4 hPa WSW 8 mph /  12.9 km/h 20 mph /  32.2 km/h 90 % 0.01 in /  0.3 mm
09:52 53.2 °F /  11.8 °C 50 °F /  10.0 °C 29.9 in /  1013.8 hPa WNW 6 mph /  9.7 km/h 20 mph /  32.2 km/h 89 % 0.01 in /  0.3 mm
10:02 53.6 °F /  12.0 °C 48.9 °F /  9.4 °C 29.9 in /  1013.8 hPa WNW 12 mph /  19.3 km/h 19 mph /  30.6 km/h 84 % 0.01 in /  0.3 mm
10:12 54.1 °F /  12.3 °C 49.1 °F /  9.5 °C 29.9 in /  1013.8 hPa West 14 mph /  22.5 km/h 24 mph /  38.6 km/h 83 % 0.01 in /  0.3 mm
10:17 54.3 °F /  12.4 °C 49.6 °F /  9.8 °C 29.9 in /  1014.1 hPa West 7 mph /  11.3 km/h 24 mph /  38.6 km/h 84 % 0.01 in /  0.3 mm
10:22 54.9 °F /  12.7 °C 50.4 °F /  10.2 °C 29.9 in /  1014.1 hPa West 12 mph /  19.3 km/h 22 mph /  35.4 km/h 85 % 0.01 in /  0.3 mm
10:32 55 °F /  12.8 °C 49.6 °F /  9.8 °C 30 in /  1014.4 hPa WSW 10 mph /  16.1 km/h 21 mph /  33.8 km/h 82 % 0.01 in /  0.3 mm
10:42 54.9 °F /  12.7 °C 49.5 °F /  9.7 °C 30 in /  1014.8 hPa West 11 mph /  17.7 km/h 21 mph /  33.8 km/h 82 % 0 in /  0.0 mm
10:47 54.9 °F /  12.7 °C 49.8 °F /  9.9 °C 30 in /  1014.8 hPa West 9 mph /  14.5 km/h 22 mph /  35.4 km/h 83 % 0 in /  0.0 mm
10:52 55 °F /  12.8 °C 49.3 °F /  9.6 °C 30 in /  1014.8 hPa WSW 11 mph /  17.7 km/h 22 mph /  35.4 km/h 81 % 0 in /  0.0 mm
11:02 55.8 °F /  13.2 °C 48.7 °F /  9.3 °C 30 in /  1015.1 hPa West 16 mph /  25.7 km/h 21 mph /  33.8 km/h 77 % 0 in /  0.0 mm
11:12 56.1 °F /  13.4 °C 48.4 °F /  9.1 °C 30 in /  1015.1 hPa WSW 13 mph /  20.9 km/h 22 mph /  35.4 km/h 75 % 0 in /  0.0 mm
11:17 56.5 °F /  13.6 °C 48 °F /  8.9 °C 30 in /  1015.5 hPa West 8 mph /  12.9 km/h 24 mph /  38.6 km/h 73 % 0 in /  0.0 mm
11:22 56.5 °F /  13.6 °C 47.1 °F /  8.4 °C 30 in /  1015.5 hPa West 14 mph /  22.5 km/h 24 mph /  38.6 km/h 71 % 0 in /  0.0 mm
11:32 56.1 °F /  13.4 °C 47.3 °F /  8.5 °C 30 in /  1015.5 hPa WNW 11 mph /  17.7 km/h 27 mph /  43.4 km/h 72 % 0 in /  0.0 mm
11:42 56.5 °F /  13.6 °C 47.5 °F /  8.6 °C 30 in /  1015.8 hPa West 10 mph /  16.1 km/h 27 mph /  43.4 km/h 72 % 0 in /  0.0 mm
11:47 56.8 °F /  13.8 °C 47.1 °F /  8.4 °C 30 in /  1016.1 hPa WNW 20 mph /  32.2 km/h 27 mph /  43.4 km/h 70 % 0 in /  0.0 mm
11:52 57 °F /  13.9 °C 47.3 °F /  8.5 °C 30 in /  1016.1 hPa West 12 mph /  19.3 km/h 25 mph /  40.2 km/h 70 % 0 in /  0.0 mm
11:57 56.7 °F /  13.7 °C 47.3 °F /  8.5 °C 30 in /  1016.1 hPa WNW 5 mph /  8.0 km/h 25 mph /  40.2 km/h 71 % 0 in /  0.0 mm
12:02 56.7 °F /  13.7 °C 46.9 °F /  8.3 °C 30 in /  1016.5 hPa West 7 mph /  11.3 km/h 25 mph /  40.2 km/h 70 % 0 in /  0.0 mm
12:12 56.7 °F /  13.7 °C 47.3 °F /  8.5 °C 30 in /  1016.5 hPa West 8 mph /  12.9 km/h 23 mph /  37.0 km/h 71 % 0 in /  0.0 mm
12:17 56.8 °F /  13.8 °C 47.1 °F /  8.4 °C 30 in /  1016.5 hPa WSW 12 mph /  19.3 km/h 20 mph /  32.2 km/h 70 % 0 in /  0.0 mm
12:22 56.8 °F /  13.8 °C 46 °F /  7.8 °C 30 in /  1016.5 hPa WNW 18 mph /  29.0 km/h 20 mph /  32.2 km/h 67 % 0 in /  0.0 mm
12:32 56.5 °F /  13.6 °C 47.1 °F /  8.4 °C 30 in /  1016.5 hPa WSW 15 mph /  24.1 km/h 26 mph /  41.8 km/h 71 % 0 in /  0.0 mm
12:42 57.2 °F /  14.0 °C 46.8 °F /  8.2 °C 30 in /  1016.8 hPa WNW 11 mph /  17.7 km/h 26 mph /  41.8 km/h 68 % 0 in /  0.0 mm
12:47 57.4 °F /  14.1 °C 45.7 °F /  7.6 °C 30 in /  1016.8 hPa WSW 11 mph /  17.7 km/h 19 mph /  30.6 km/h 65 % 0 in /  0.0 mm
12:52 57.7 °F /  14.3 °C 46 °F /  7.8 °C 30 in /  1017.2 hPa WSW 19 mph /  30.6 km/h 19 mph /  30.6 km/h 65 % 0 in /  0.0 mm
12:57 57 °F /  13.9 °C 46.6 °F /  8.1 °C 30 in /  1017.2 hPa West 15 mph /  24.1 km/h 23 mph /  37.0 km/h 68 % 0 in /  0.0 mm
13:02 57 °F /  13.9 °C 47.7 °F /  8.7 °C 30 in /  1017.2 hPa WNW 7 mph /  11.3 km/h 23 mph /  37.0 km/h 71 % 0 in /  0.0 mm
13:12 57.7 °F /  14.3 °C 46.4 °F /  8.0 °C 30 in /  1017.2 hPa WSW 13 mph /  20.9 km/h 23 mph /  37.0 km/h 66 % 0 in /  0.0 mm
13:17 57.4 °F /  14.1 °C 46 °F /  7.8 °C 30.1 in /  1017.5 hPa WNW 15 mph /  24.1 km/h 18 mph /  29.0 km/h 66 % 0 in /  0.0 mm
13:22 56.8 °F /  13.8 °C 46 °F /  7.8 °C 30.1 in /  1017.5 hPa WSW 15 mph /  24.1 km/h 19 mph /  30.6 km/h 67 % 0 in /  0.0 mm
13:27 57.2 °F /  14.0 °C 46.4 °F /  8.0 °C 30.1 in /  1017.5 hPa West 7 mph /  11.3 km/h 20 mph /  32.2 km/h 67 % 0 in /  0.0 mm
13:32 57.9 °F /  14.4 °C 45.3 °F /  7.4 °C 30.1 in /  1017.5 hPa West 9 mph /  14.5 km/h 20 mph /  32.2 km/h 63 % 0 in /  0.0 mm
13:42 57.9 °F /  14.4 °C 46.6 °F /  8.1 °C 30.1 in /  1017.5 hPa West 8 mph /  12.9 km/h 20 mph /  32.2 km/h 66 % 0 in /  0.0 mm
13:47 58.6 °F /  14.8 °C 46.6 °F /  8.1 °C 30.1 in /  1017.8 hPa West 11 mph /  17.7 km/h 20 mph /  32.2 km/h 64 % 0 in /  0.0 mm
13:52 59 °F /  15.0 °C 46.4 °F /  8.0 °C 30.1 in /  1017.8 hPa WNW 7 mph /  11.3 km/h 19 mph /  30.6 km/h 63 % 0 in /  0.0 mm
13:57 58.5 °F /  14.7 °C 45.5 °F /  7.5 °C 30.1 in /  1017.8 hPa WSW 12 mph /  19.3 km/h 19 mph /  30.6 km/h 62 % 0 in /  0.0 mm
14:02 57.9 °F /  14.4 °C 46.6 °F /  8.1 °C 30.1 in /  1018.2 hPa West 13 mph /  20.9 km/h 19 mph /  30.6 km/h 66 % 0 in /  0.0 mm
14:12 57.9 °F /  14.4 °C 46.9 °F /  8.3 °C 30.1 in /  1018.2 hPa West 8 mph /  12.9 km/h 20 mph /  32.2 km/h 67 % 0 in /  0.0 mm
14:17 57.9 °F /  14.4 °C 45.9 °F /  7.7 °C 30.1 in /  1018.2 hPa WSW 7 mph /  11.3 km/h 20 mph /  32.2 km/h 64 % 0 in /  0.0 mm
14:22 58.1 °F /  14.5 °C 46 °F /  7.8 °C 30.1 in /  1018.2 hPa West 7 mph /  11.3 km/h 21 mph /  33.8 km/h 64 % 0 in /  0.0 mm
14:27 58.5 °F /  14.7 °C 46.8 °F /  8.2 °C 30.1 in /  1018.2 hPa West 9 mph /  14.5 km/h 21 mph /  33.8 km/h 65 % 0 in /  0.0 mm
14:32 59 °F /  15.0 °C 47.3 °F /  8.5 °C 30.1 in /  1018.2 hPa WSW 12 mph /  19.3 km/h 17 mph /  27.4 km/h 65 % 0 in /  0.0 mm
14:37 59.2 °F /  15.1 °C 46.6 °F /  8.1 °C 30.1 in /  1018.2 hPa WSW 12 mph /  19.3 km/h 17 mph /  27.4 km/h 63 % 0 in /  0.0 mm
14:42 58.6 °F /  14.8 °C 46 °F /  7.8 °C 30.1 in /  1018.2 hPa West 11 mph /  17.7 km/h 18 mph /  29.0 km/h 63 % 0 in /  0.0 mm
14:47 58.6 °F /  14.8 °C 46 °F /  7.8 °C 30.1 in /  1018.5 hPa West 10 mph /  16.1 km/h 20 mph /  32.2 km/h 63 % 0 in /  0.0 mm
14:52 59 °F /  15.0 °C 46.4 °F /  8.0 °C 30.1 in /  1018.5 hPa West 10 mph /  16.1 km/h 23 mph /  37.0 km/h 63 % 0 in /  0.0 mm
14:57 59 °F /  15.0 °C 46.4 °F /  8.0 °C 30.1 in /  1018.5 hPa West 11 mph /  17.7 km/h 23 mph /  37.0 km/h 63 % 0 in /  0.0 mm
15:02 58.8 °F /  14.9 °C 46.2 °F /  7.9 °C 30.1 in /  1018.5 hPa WNW 9 mph /  14.5 km/h 18 mph /  29.0 km/h 63 % 0 in /  0.0 mm
15:07 59.2 °F /  15.1 °C 46.6 °F /  8.1 °C 30.1 in /  1018.5 hPa WNW 17 mph /  27.4 km/h 18 mph /  29.0 km/h 63 % 0 in /  0.0 mm
15:12 58.8 °F /  14.9 °C 46.2 °F /  7.9 °C 30.1 in /  1018.5 hPa West 6 mph /  9.7 km/h 21 mph /  33.8 km/h 63 % 0 in /  0.0 mm
15:17 59.2 °F /  15.1 °C 46.9 °F /  8.3 °C 30.1 in /  1018.5 hPa West 4 mph /  6.4 km/h 21 mph /  33.8 km/h 64 % 0 in /  0.0 mm
15:22 59.2 °F /  15.1 °C 46.9 °F /  8.3 °C 30.1 in /  1018.5 hPa West 11 mph /  17.7 km/h 21 mph /  33.8 km/h 64 % 0 in /  0.0 mm
15:27 59.2 °F /  15.1 °C 46.2 °F /  7.9 °C 30.1 in /  1018.5 hPa WSW 14 mph /  22.5 km/h 19 mph /  30.6 km/h 62 % 0 in /  0.0 mm
15:32 59.2 °F /  15.1 °C 46.6 °F /  8.1 °C 30.1 in /  1018.5 hPa NW 5 mph /  8.0 km/h 19 mph /  30.6 km/h 63 % 0 in /  0.0 mm
15:37 59.4 °F /  15.2 °C 46.8 °F /  8.2 °C 30.1 in /  1018.5 hPa WNW 9 mph /  14.5 km/h 19 mph /  30.6 km/h 63 % 0 in /  0.0 mm
15:42 59.5 °F /  15.3 °C 46 °F /  7.8 °C 30.1 in /  1018.5 hPa West 8 mph /  12.9 km/h 16 mph /  25.7 km/h 61 % 0 in /  0.0 mm
15:47 60.1 °F /  15.6 °C 47.5 °F /  8.6 °C 30.1 in /  1018.5 hPa West 17 mph /  27.4 km/h 17 mph /  27.4 km/h 63 % 0 in /  0.0 mm
15:57 59.9 °F /  15.5 °C 46.8 °F /  8.2 °C 30.1 in /  1018.5 hPa WSW 12 mph /  19.3 km/h 18 mph /  29.0 km/h 62 % 0 in /  0.0 mm
16:02 59.5 °F /  15.3 °C 46 °F /  7.8 °C 30.1 in /  1018.5 hPa SW 8 mph /  12.9 km/h 18 mph /  29.0 km/h 61 % 0 in /  0.0 mm
16:07 59.7 °F /  15.4 °C 46.2 °F /  7.9 °C 30.1 in /  1018.5 hPa WSW 10 mph /  16.1 km/h 15 mph /  24.1 km/h 61 % 0 in /  0.0 mm
16:12 59.7 °F /  15.4 °C 46.2 °F /  7.9 °C 30.1 in /  1018.5 hPa West 13 mph /  20.9 km/h 18 mph /  29.0 km/h 61 % 0 in /  0.0 mm
16:17 59.7 °F /  15.4 °C 45.9 °F /  7.7 °C 30.1 in /  1018.5 hPa WSW 10 mph /  16.1 km/h 18 mph /  29.0 km/h 60 % 0 in /  0.0 mm
16:22 59.5 °F /  15.3 °C 46 °F /  7.8 °C 30.1 in /  1018.5 hPa West 9 mph /  14.5 km/h 21 mph /  33.8 km/h 61 % 0 in /  0.0 mm
16:32 60.6 °F /  15.9 °C 45.7 °F /  7.6 °C 30.1 in /  1018.5 hPa SW 7 mph /  11.3 km/h 23 mph /  37.0 km/h 58 % 0 in /  0.0 mm
16:37 60.3 °F /  15.7 °C 45.9 °F /  7.7 °C 30.1 in /  1018.5 hPa West 7 mph /  11.3 km/h 23 mph /  37.0 km/h 59 % 0 in /  0.0 mm
16:42 60.1 °F /  15.6 °C 46.2 °F /  7.9 °C 30.1 in /  1018.5 hPa West 6 mph /  9.7 km/h 18 mph /  29.0 km/h 60 % 0 in /  0.0 mm
16:47 60.1 °F /  15.6 °C 46.2 °F /  7.9 °C 30.1 in /  1018.5 hPa West 5 mph /  8.0 km/h 17 mph /  27.4 km/h 60 % 0 in /  0.0 mm
16:52 60.6 °F /  15.9 °C 45.7 °F /  7.6 °C 30.1 in /  1018.5 hPa WNW 9 mph /  14.5 km/h 19 mph /  30.6 km/h 58 % 0 in /  0.0 mm
16:57 60.3 °F /  15.7 °C 45 °F /  7.2 °C 30.1 in /  1018.5 hPa West 12 mph /  19.3 km/h 19 mph /  30.6 km/h 57 % 0 in /  0.0 mm
17:02 60.6 °F /  15.9 °C 46.2 °F /  7.9 °C 30.1 in /  1018.2 hPa West 9 mph /  14.5 km/h 19 mph /  30.6 km/h 59 % 0 in /  0.0 mm
17:07 61 °F /  16.1 °C 45.7 °F /  7.6 °C 30.1 in /  1018.2 hPa WSW 16 mph /  25.7 km/h 18 mph /  29.0 km/h 57 % 0 in /  0.0 mm
17:12 61.3 °F /  16.3 °C 46.4 °F /  8.0 °C 30.1 in /  1018.5 hPa WSW 9 mph /  14.5 km/h 18 mph /  29.0 km/h 58 % 0 in /  0.0 mm
17:17 61.3 °F /  16.3 °C 45.5 °F /  7.5 °C 30.1 in /  1018.2 hPa WSW 8 mph /  12.9 km/h 20 mph /  32.2 km/h 56 % 0 in /  0.0 mm
17:22 61.3 °F /  16.3 °C 46.4 °F /  8.0 °C 30.1 in /  1018.5 hPa West 13 mph /  20.9 km/h 20 mph /  32.2 km/h 58 % 0 in /  0.0 mm
17:27 60.6 °F /  15.9 °C 45.3 °F /  7.4 °C 30.1 in /  1018.5 hPa West 7 mph /  11.3 km/h 20 mph /  32.2 km/h 57 % 0 in /  0.0 mm
17:32 60.1 °F /  15.6 °C 45.7 °F /  7.6 °C 30.1 in /  1018.5 hPa WSW 5 mph /  8.0 km/h 17 mph /  27.4 km/h 59 % 0 in /  0.0 mm
17:37 60.1 °F /  15.6 °C 45.3 °F /  7.4 °C 30.1 in /  1018.5 hPa WSW 9 mph /  14.5 km/h 17 mph /  27.4 km/h 58 % 0 in /  0.0 mm
17:42 59.9 °F /  15.5 °C 45.1 °F /  7.3 °C 30.1 in /  1018.2 hPa NW 6 mph /  9.7 km/h 16 mph /  25.7 km/h 58 % 0 in /  0.0 mm
17:47 59.9 °F /  15.5 °C 45.1 °F /  7.3 °C 30.1 in /  1018.2 hPa SW 11 mph /  17.7 km/h 15 mph /  24.1 km/h 58 % 0 in /  0.0 mm
17:52 60.1 °F /  15.6 °C 44.8 °F /  7.1 °C 30.1 in /  1018.2 hPa WNW 8 mph /  12.9 km/h 14 mph /  22.5 km/h 57 % 0 in /  0.0 mm
17:57 60.3 °F /  15.7 °C 45 °F /  7.2 °C 30.1 in /  1018.2 hPa WSW 11 mph /  17.7 km/h 18 mph /  29.0 km/h 57 % 0 in /  0.0 mm
18:02 60.3 °F /  15.7 °C 45.5 °F /  7.5 °C 30.1 in /  1018.2 hPa West 10 mph /  16.1 km/h 18 mph /  29.0 km/h 58 % 0 in /  0.0 mm
18:07 60.6 °F /  15.9 °C 45.3 °F /  7.4 °C 30.1 in /  1018.2 hPa West 7 mph /  11.3 km/h 18 mph /  29.0 km/h 57 % 0 in /  0.0 mm
18:12 61.2 °F /  16.2 °C 45.3 °F /  7.4 °C 30.1 in /  1018.2 hPa WSW 8 mph /  12.9 km/h 16 mph /  25.7 km/h 56 % 0 in /  0.0 mm
18:17 61 °F /  16.1 °C 45.1 °F /  7.3 °C 30.1 in /  1018.2 hPa West 4 mph /  6.4 km/h 16 mph /  25.7 km/h 56 % 0 in /  0.0 mm
18:22 61.2 °F /  16.2 °C 45.3 °F /  7.4 °C 30.1 in /  1018.2 hPa WSW 7 mph /  11.3 km/h 15 mph /  24.1 km/h 56 % 0 in /  0.0 mm
18:32 61.3 °F /  16.3 °C 44.6 °F /  7.0 °C 30.1 in /  1018.2 hPa WSW 6 mph /  9.7 km/h 18 mph /  29.0 km/h 54 % 0 in /  0.0 mm
18:37 61 °F /  16.1 °C 44.8 °F /  7.1 °C 30.1 in /  1018.2 hPa WSW 9 mph /  14.5 km/h 18 mph /  29.0 km/h 55 % 0 in /  0.0 mm
18:42 60.6 °F /  15.9 °C 45.3 °F /  7.4 °C 30.1 in /  1018.2 hPa West 9 mph /  14.5 km/h 18 mph /  29.0 km/h 57 % 0 in /  0.0 mm
18:52 60.8 °F /  16.0 °C 45 °F /  7.2 °C 30.1 in /  1018.2 hPa SW 12 mph /  19.3 km/h 17 mph /  27.4 km/h 56 % 0 in /  0.0 mm
18:57 60.8 °F /  16.0 °C 45.5 °F /  7.5 °C 30.1 in /  1018.2 hPa West 5 mph /  8.0 km/h 17 mph /  27.4 km/h 57 % 0 in /  0.0 mm
19:02 60.6 °F /  15.9 °C 45.3 °F /  7.4 °C 30.1 in /  1018.2 hPa WNW 14 mph /  22.5 km/h 17 mph /  27.4 km/h 57 % 0 in /  0.0 mm
19:07 60.6 °F /  15.9 °C 45.3 °F /  7.4 °C 30.1 in /  1018.2 hPa West 7 mph /  11.3 km/h 15 mph /  24.1 km/h 57 % 0 in /  0.0 mm
19:12 60.4 °F /  15.8 °C 45.1 °F /  7.3 °C 30.1 in /  1018.2 hPa WNW 4 mph /  6.4 km/h 15 mph /  24.1 km/h 57 % 0 in /  0.0 mm
19:17 60.4 °F /  15.8 °C 45.1 °F /  7.3 °C 30.1 in /  1018.2 hPa SW 3 mph /  4.8 km/h 15 mph /  24.1 km/h 57 % 0 in /  0.0 mm
19:22 60.4 °F /  15.8 °C 45.1 °F /  7.3 °C 30.1 in /  1018.2 hPa West 9 mph /  14.5 km/h 15 mph /  24.1 km/h 57 % 0 in /  0.0 mm
19:32 60.1 °F /  15.6 °C 44.8 °F /  7.1 °C 30.1 in /  1018.5 hPa WSW 10 mph /  16.1 km/h 12 mph /  19.3 km/h 57 % 0 in /  0.0 mm
19:37 59.5 °F /  15.3 °C 44.8 °F /  7.1 °C 30.1 in /  1018.5 hPa WSW 6 mph /  9.7 km/h 14 mph /  22.5 km/h 58 % 0 in /  0.0 mm
19:42 59.2 °F /  15.1 °C 44.8 °F /  7.1 °C 30.1 in /  1018.5 hPa WSW 7 mph /  11.3 km/h 14 mph /  22.5 km/h 59 % 0 in /  0.0 mm
19:47 58.6 °F /  14.8 °C 44.8 °F /  7.1 °C 30.1 in /  1018.5 hPa SW 3 mph /  4.8 km/h 14 mph /  22.5 km/h 60 % 0 in /  0.0 mm
19:52 58.5 °F /  14.7 °C 45.1 °F /  7.3 °C 30.1 in /  1018.5 hPa West 3 mph /  4.8 km/h 9 mph /  14.5 km/h 61 % 0 in /  0.0 mm
19:57 58.3 °F /  14.6 °C 45.3 °F /  7.4 °C 30.1 in /  1018.5 hPa West 3 mph /  4.8 km/h 8 mph /  12.9 km/h 62 % 0 in /  0.0 mm
20:02 57.7 °F /  14.3 °C 45.3 °F /  7.4 °C 30.1 in /  1018.5 hPa WSW 2 mph /  3.2 km/h 6 mph /  9.7 km/h 63 % 0 in /  0.0 mm
20:07 57.6 °F /  14.2 °C 45.5 °F /  7.5 °C 30.1 in /  1018.5 hPa WSW 3 mph /  4.8 km/h 6 mph /  9.7 km/h 64 % 0 in /  0.0 mm
20:12 57 °F /  13.9 °C 45 °F /  7.2 °C 30.1 in /  1018.5 hPa SW 2 mph /  3.2 km/h 6 mph /  9.7 km/h 64 % 0 in /  0.0 mm
20:17 56.8 °F /  13.8 °C 45.1 °F /  7.3 °C 30.1 in /  1018.8 hPa WSW 1 mph /  1.6 km/h 5 mph /  8.0 km/h 65 % 0 in /  0.0 mm
20:22 56.8 °F /  13.8 °C 45.1 °F /  7.3 °C 30.1 in /  1018.8 hPa SW 2 mph /  3.2 km/h 5 mph /  8.0 km/h 65 % 0 in /  0.0 mm
20:32 56.5 °F /  13.6 °C 45.3 °F /  7.4 °C 30.1 in /  1018.8 hPa WSW 2 mph /  3.2 km/h 7 mph /  11.3 km/h 66 % 0 in /  0.0 mm
20:37 56.3 °F /  13.5 °C 45.1 °F /  7.3 °C 30.1 in /  1018.8 hPa WSW 3 mph /  4.8 km/h 7 mph /  11.3 km/h 66 % 0 in /  0.0 mm
20:42 56.1 °F /  13.4 °C 45 °F /  7.2 °C 30.1 in /  1018.8 hPa SW 4 mph /  6.4 km/h 7 mph /  11.3 km/h 66 % 0 in /  0.0 mm
20:47 55.9 °F /  13.3 °C 45.1 °F /  7.3 °C 30.1 in /  1018.8 hPa WSW 4 mph /  6.4 km/h 6 mph /  9.7 km/h 67 % 0 in /  0.0 mm
20:52 55.9 °F /  13.3 °C 45.1 °F /  7.3 °C 30.1 in /  1018.8 hPa WSW 3 mph /  4.8 km/h 6 mph /  9.7 km/h 67 % 0 in /  0.0 mm
20:57 55.4 °F /  13.0 °C 45.3 °F /  7.4 °C 30.1 in /  1018.8 hPa West 1 mph /  1.6 km/h 5 mph /  8.0 km/h 69 % 0 in /  0.0 mm
21:02 54.7 °F /  12.6 °C 45.5 °F /  7.5 °C 30.1 in /  1019.2 hPa West 1 mph /  1.6 km/h 5 mph /  8.0 km/h 71 % 0 in /  0.0 mm
21:07 54.1 °F /  12.3 °C 45.3 °F /  7.4 °C 30.1 in /  1019.2 hPa Calm   4 mph /  6.4 km/h 72 % 0 in /  0.0 mm
21:12 54.1 °F /  12.3 °C 45.3 °F /  7.4 °C 30.1 in /  1019.2 hPa WSW 2 mph /  3.2 km/h 3 mph /  4.8 km/h 72 % 0 in /  0.0 mm
21:17 54 °F /  12.2 °C 45.1 °F /  7.3 °C 30.1 in /  1019.2 hPa West 1 mph /  1.6 km/h 3 mph /  4.8 km/h 72 % 0 in /  0.0 mm
21:22 54 °F /  12.2 °C 45.1 °F /  7.3 °C 30.1 in /  1019.2 hPa WSW 1 mph /  1.6 km/h 3 mph /  4.8 km/h 72 % 0 in /  0.0 mm
21:27 53.8 °F /  12.1 °C 45.3 °F /  7.4 °C 30.1 in /  1019.2 hPa West 2 mph /  3.2 km/h 3 mph /  4.8 km/h 73 % 0 in /  0.0 mm
21:32 53.4 °F /  11.9 °C 45 °F /  7.2 °C 30.1 in /  1019.2 hPa Calm   3 mph /  4.8 km/h 73 % 0 in /  0.0 mm
21:37 53.1 °F /  11.7 °C 45 °F /  7.2 °C 30.1 in /  1019.2 hPa Calm   3 mph /  4.8 km/h 74 % 0 in /  0.0 mm
21:42 52.7 °F /  11.5 °C 45 °F /  7.2 °C 30.1 in /  1019.2 hPa Calm   3 mph /  4.8 km/h 75 % 0 in /  0.0 mm
21:52 52.3 °F /  11.3 °C 45 °F /  7.2 °C 30.1 in /  1019.2 hPa West 2 mph /  3.2 km/h 2 mph /  3.2 km/h 76 % 0 in /  0.0 mm
21:57 52.7 °F /  11.5 °C 45 °F /  7.2 °C 30.1 in /  1019.2 hPa WSW 2 mph /  3.2 km/h 3 mph /  4.8 km/h 75 % 0 in /  0.0 mm
22:02 52.9 °F /  11.6 °C 44.8 °F /  7.1 °C 30.1 in /  1019.2 hPa WSW 1 mph /  1.6 km/h 4 mph /  6.4 km/h 74 % 0 in /  0.0 mm
22:07 53.2 °F /  11.8 °C 44.8 °F /  7.1 °C 30.1 in /  1019.2 hPa SW 3 mph /  4.8 km/h 4 mph /  6.4 km/h 73 % 0 in /  0.0 mm
22:12 54 °F /  12.2 °C 45.1 °F /  7.3 °C 30.1 in /  1019.2 hPa WSW 4 mph /  6.4 km/h 5 mph /  8.0 km/h 72 % 0 in /  0.0 mm
22:17 54.3 °F /  12.4 °C 45.1 °F /  7.3 °C 30.1 in /  1019.2 hPa WSW 3 mph /  4.8 km/h 6 mph /  9.7 km/h 71 % 0 in /  0.0 mm
22:22 54.5 °F /  12.5 °C 45.3 °F /  7.4 °C 30.1 in /  1019.2 hPa SW 2 mph /  3.2 km/h 6 mph /  9.7 km/h 71 % 0 in /  0.0 mm
22:27 54.9 °F /  12.7 °C 45.3 °F /  7.4 °C 30.1 in /  1019.2 hPa West 3 mph /  4.8 km/h 7 mph /  11.3 km/h 70 % 0 in /  0.0 mm
22:32 54.9 °F /  12.7 °C 45.3 °F /  7.4 °C 30.1 in /  1019.2 hPa WSW 3 mph /  4.8 km/h 7 mph /  11.3 km/h 70 % 0 in /  0.0 mm
22:37 54.9 °F /  12.7 °C 45.3 °F /  7.4 °C 30.1 in /  1019.2 hPa SW 1 mph /  1.6 km/h 7 mph /  11.3 km/h 70 % 0 in /  0.0 mm
22:42 54.9 °F /  12.7 °C 45.3 °F /  7.4 °C 30.1 in /  1019.2 hPa WSW 3 mph /  4.8 km/h 5 mph /  8.0 km/h 70 % 0 in /  0.0 mm
22:47 54.9 °F /  12.7 °C 45.3 °F /  7.4 °C 30.1 in /  1019.2 hPa West 2 mph /  3.2 km/h 4 mph /  6.4 km/h 70 % 0 in /  0.0 mm
22:52 54.9 °F /  12.7 °C 45.3 °F /  7.4 °C 30.1 in /  1019.2 hPa West 2 mph /  3.2 km/h 5 mph /  8.0 km/h 70 % 0 in /  0.0 mm
22:57 54.7 °F /  12.6 °C 45.5 °F /  7.5 °C 30.1 in /  1018.8 hPa Calm   5 mph /  8.0 km/h 71 % 0 in /  0.0 mm
23:02 54.1 °F /  12.3 °C 45.7 °F /  7.6 °C 30.1 in /  1018.8 hPa Calm   5 mph /  8.0 km/h 73 % 0 in /  0.0 mm
23:07 53.2 °F /  11.8 °C 45.9 °F /  7.7 °C 30.1 in /  1018.8 hPa Calm   5 mph /  8.0 km/h 76 % 0 in /  0.0 mm
23:12 52.5 °F /  11.4 °C 45.5 °F /  7.5 °C 30.1 in /  1018.8 hPa Calm   2 mph /  3.2 km/h 77 % 0 in /  0.0 mm
23:17 51.8 °F /  11.0 °C 45.5 °F /  7.5 °C 30.1 in /  1018.8 hPa SSE 1 mph /  1.6 km/h 1 mph /  1.6 km/h 79 % 0 in /  0.0 mm
23:22 51.3 °F /  10.7 °C 45.3 °F /  7.4 °C 30.1 in /  1018.8 hPa SW 1 mph /  1.6 km/h 3 mph /  4.8 km/h 80 % 0 in /  0.0 mm
23:27 50.9 °F /  10.5 °C 45.3 °F /  7.4 °C 30.1 in /  1018.8 hPa SSE 1 mph /  1.6 km/h 3 mph /  4.8 km/h 81 % 0 in /  0.0 mm
23:32 50.7 °F /  10.4 °C 45.5 °F /  7.5 °C 30.1 in /  1018.8 hPa Calm   3 mph /  4.8 km/h 82 % 0 in /  0.0 mm
23:37 50.4 °F /  10.2 °C 45.3 °F /  7.4 °C 30.1 in /  1018.8 hPa Calm   2 mph /  3.2 km/h 83 % 0 in /  0.0 mm
23:42 50.2 °F /  10.1 °C 45.5 °F /  7.5 °C 30.1 in /  1018.8 hPa Calm   2 mph /  3.2 km/h 84 % 0 in /  0.0 mm
23:47 50 °F /  10.0 °C 45.3 °F /  7.4 °C 30.1 in /  1018.8 hPa Calm   2 mph /  3.2 km/h 84 % 0 in /  0.0 mm
23:52 50.2 °F /  10.1 °C 45.5 °F /  7.5 °C 30.1 in /  1018.8 hPa Calm   2 mph /  3.2 km/h 84 % 0 in /  0.0 mm
23:57 50.2 °F /  10.1 °C 45.5 °F /  7.5 °C 30.1 in /  1018.8 hPa Calm   1 mph /  1.6 km/h 84 % 0 in /  0.0 mm
Meteo18
Compliments of Weather Underground - 4 mb

Script developed by  Jim McMurry - jmcmurry@mwt.net Adapted for the template by  Wim van der Kuil - Leuven-Template.eu

You find our weather info also at:

European Weather Network

Weather Underground

Equipment we use:

Weather-station
Davis Vue

Weather-program
Meteohub

Weather-server
Raspberry PI 2 B+

Provider
1 and 1

Davis Vue

Meteohub

Raspberry PI 2 B+

1 and 1